Terminal Aerodrome Forecast
Issued by NWS Lake Charles, LA

Home | Current Version | Previous Version | Text Only | Print | Product List | Glossary On
Versions: 1 2 3 4 5 6 7 8 9 10 11 12
000
FTUS44 KLCH 300520
TAFARA
TAF
KARA 300520Z 3006/3106 18008KT P6SM SCT025
     FM300900 VRB05KT 4SM BR BKN025
     FM301400 VRB05KT P6SM BKN025
     FM301700 23007KT P6SM BKN035
     FM302000 23009KT P6SM SCT035=

USA.gov is the U.S. government's official web portal to all federal, state and local government web resources and services.